sensor_id;sensor_type;location;lat;lon;timestamp;P1;durP1;ratioP1;P2;durP2;ratioP2
12869;SDS011;6503;48.572;13.460;2023-05-20T00:13:43;5.20;;;4.47;;
12869;SDS011;6503;48.572;13.460;2023-05-20T00:16:11;7.63;;;5.43;;
12869;SDS011;6503;48.572;13.460;2023-05-20T00:18:38;5.18;;;4.68;;
12869;SDS011;6503;48.572;13.460;2023-05-20T00:21:06;7.35;;;4.95;;
12869;SDS011;6503;48.572;13.460;2023-05-20T00:23:33;5.65;;;4.68;;
12869;SDS011;6503;48.572;13.460;2023-05-20T00:26:00;7.13;;;4.90;;
12869;SDS011;6503;48.572;13.460;2023-05-20T00:28:30;5.63;;;4.97;;
12869;SDS011;6503;48.572;13.460;2023-05-20T00:30:59;5.47;;;4.43;;
12869;SDS011;6503;48.572;13.460;2023-05-20T00:33:28;6.65;;;4.88;;
12869;SDS011;6503;48.572;13.460;2023-05-20T00:35:56;5.85;;;4.80;;
12869;SDS011;6503;48.572;13.460;2023-05-20T00:38:24;5.97;;;5.00;;
12869;SDS011;6503;48.572;13.460;2023-05-20T00:40:53;6.53;;;4.85;;
12869;SDS011;6503;48.572;13.460;2023-05-20T00:43:20;7.55;;;4.32;;
12869;SDS011;6503;48.572;13.460;2023-05-20T00:45:55;5.60;;;5.10;;
12869;SDS011;6503;48.572;13.460;2023-05-20T00:48:26;6.47;;;4.95;;
12869;SDS011;6503;48.572;13.460;2023-05-20T00:50:55;5.63;;;5.10;;
12869;SDS011;6503;48.572;13.460;2023-05-20T00:53:25;7.05;;;5.15;;
12869;SDS011;6503;48.572;13.460;2023-05-20T00:55:54;7.68;;;5.35;;
12869;SDS011;6503;48.572;13.460;2023-05-20T00:58:28;6.55;;;5.07;;
12869;SDS011;6503;48.572;13.460;2023-05-20T01:00:55;5.68;;;5.07;;
12869;SDS011;6503;48.572;13.460;2023-05-20T01:03:23;6.13;;;4.80;;
12869;SDS011;6503;48.572;13.460;2023-05-20T01:05:52;6.10;;;4.95;;
12869;SDS011;6503;48.572;13.460;2023-05-20T01:08:20;6.80;;;5.13;;
12869;SDS011;6503;48.572;13.460;2023-05-20T01:10:50;6.20;;;4.80;;
12869;SDS011;6503;48.572;13.460;2023-05-20T01:13:21;6.78;;;5.15;;
12869;SDS011;6503;48.572;13.460;2023-05-20T01:15:50;5.25;;;4.50;;
12869;SDS011;6503;48.572;13.460;2023-05-20T01:18:19;5.57;;;4.70;;
12869;SDS011;6503;48.572;13.460;2023-05-20T01:20:53;8.02;;;5.20;;
12869;SDS011;6503;48.572;13.460;2023-05-20T01:23:38;6.55;;;5.20;;
12869;SDS011;6503;48.572;13.460;2023-05-20T01:28:33;6.28;;;5.38;;
12869;SDS011;6503;48.572;13.460;2023-05-20T01:31:03;6.43;;;5.18;;
12869;SDS011;6503;48.572;13.460;2023-05-20T01:33:32;6.18;;;5.05;;
12869;SDS011;6503;48.572;13.460;2023-05-20T01:36:00;6.95;;;5.13;;
12869;SDS011;6503;48.572;13.460;2023-05-20T01:38:41;6.47;;;4.50;;
12869;SDS011;6503;48.572;13.460;2023-05-20T01:41:12;6.28;;;5.68;;
12869;SDS011;6503;48.572;13.460;2023-05-20T01:43:40;5.60;;;4.75;;
12869;SDS011;6503;48.572;13.460;2023-05-20T01:46:07;8.43;;;5.55;;
12869;SDS011;6503;48.572;13.460;2023-05-20T01:48:35;7.30;;;5.75;;
12869;SDS011;6503;48.572;13.460;2023-05-20T01:51:03;6.53;;;5.45;;
12869;SDS011;6503;48.572;13.460;2023-05-20T01:53:35;6.63;;;4.90;;
12869;SDS011;6503;48.572;13.460;2023-05-20T01:56:06;5.72;;;5.13;;
12869;SDS011;6503;48.572;13.460;2023-05-20T01:58:33;6.80;;;5.45;;
12869;SDS011;6503;48.572;13.460;2023-05-20T02:01:01;5.97;;;5.07;;
12869;SDS011;6503;48.572;13.460;2023-05-20T02:03:28;6.57;;;4.95;;
12869;SDS011;6503;48.572;13.460;2023-05-20T02:05:56;6.78;;;5.38;;
12869;SDS011;6503;48.572;13.460;2023-05-20T02:08:26;8.75;;;5.78;;
12869;SDS011;6503;48.572;13.460;2023-05-20T02:10:54;7.22;;;5.38;;
12869;SDS011;6503;48.572;13.460;2023-05-20T02:13:24;8.45;;;5.57;;
12869;SDS011;6503;48.572;13.460;2023-05-20T02:15:51;6.75;;;5.78;;
12869;SDS011;6503;48.572;13.460;2023-05-20T02:18:19;6.35;;;5.43;;
12869;SDS011;6503;48.572;13.460;2023-05-20T02:20:46;5.43;;;4.68;;
12869;SDS011;6503;48.572;13.460;2023-05-20T02:23:14;6.20;;;5.53;;
12869;SDS011;6503;48.572;13.460;2023-05-20T02:25:42;5.97;;;5.30;;
12869;SDS011;6503;48.572;13.460;2023-05-20T02:28:09;5.68;;;5.15;;
12869;SDS011;6503;48.572;13.460;2023-05-20T02:30:38;5.93;;;5.32;;
12869;SDS011;6503;48.572;13.460;2023-05-20T02:33:07;7.70;;;5.28;;
12869;SDS011;6503;48.572;13.460;2023-05-20T02:35:35;6.85;;;5.30;;
12869;SDS011;6503;48.572;13.460;2023-05-20T02:38:03;6.47;;;5.32;;
12869;SDS011;6503;48.572;13.460;2023-05-20T02:40:30;5.88;;;5.05;;
12869;SDS011;6503;48.572;13.460;2023-05-20T02:43:01;7.18;;;5.20;;
12869;SDS011;6503;48.572;13.460;2023-05-20T02:45:30;6.07;;;5.43;;
12869;SDS011;6503;48.572;13.460;2023-05-20T02:48:00;7.45;;;5.93;;
12869;SDS011;6503;48.572;13.460;2023-05-20T02:50:28;6.43;;;5.53;;
12869;SDS011;6503;48.572;13.460;2023-05-20T02:52:55;6.30;;;5.70;;
12869;SDS011;6503;48.572;13.460;2023-05-20T02:55:23;6.50;;;5.65;;
12869;SDS011;6503;48.572;13.460;2023-05-20T02:57:54;6.35;;;5.40;;
12869;SDS011;6503;48.572;13.460;2023-05-20T03:03:09;7.13;;;5.20;;
12869;SDS011;6503;48.572;13.460;2023-05-20T03:05:37;8.13;;;5.82;;
12869;SDS011;6503;48.572;13.460;2023-05-20T03:08:07;6.28;;;5.30;;
12869;SDS011;6503;48.572;13.460;2023-05-20T03:10:35;7.22;;;6.03;;
12869;SDS011;6503;48.572;13.460;2023-05-20T03:13:03;7.07;;;5.28;;
12869;SDS011;6503;48.572;13.460;2023-05-20T03:15:32;6.35;;;5.72;;
12869;SDS011;6503;48.572;13.460;2023-05-20T03:18:00;7.28;;;5.88;;
12869;SDS011;6503;48.572;13.460;2023-05-20T03:20:30;7.05;;;5.63;;
12869;SDS011;6503;48.572;13.460;2023-05-20T03:22:58;7.68;;;5.30;;
12869;SDS011;6503;48.572;13.460;2023-05-20T03:28:01;6.90;;;6.13;;
12869;SDS011;6503;48.572;13.460;2023-05-20T03:30:33;7.07;;;5.85;;
12869;SDS011;6503;48.572;13.460;2023-05-20T03:33:00;8.25;;;5.93;;
12869;SDS011;6503;48.572;13.460;2023-05-20T03:35:31;8.65;;;6.72;;
12869;SDS011;6503;48.572;13.460;2023-05-20T03:37:58;8.65;;;5.30;;
12869;SDS011;6503;48.572;13.460;2023-05-20T03:40:26;6.40;;;5.28;;
12869;SDS011;6503;48.572;13.460;2023-05-20T03:42:54;6.65;;;5.47;;
12869;SDS011;6503;48.572;13.460;2023-05-20T03:45:22;7.60;;;6.35;;
12869;SDS011;6503;48.572;13.460;2023-05-20T03:47:49;7.55;;;5.57;;
12869;SDS011;6503;48.572;13.460;2023-05-20T03:50:20;8.15;;;6.18;;
12869;SDS011;6503;48.572;13.460;2023-05-20T03:52:49;7.72;;;6.13;;
12869;SDS011;6503;48.572;13.460;2023-05-20T03:55:17;7.70;;;5.97;;
12869;SDS011;6503;48.572;13.460;2023-05-20T03:57:45;7.88;;;6.28;;
12869;SDS011;6503;48.572;13.460;2023-05-20T04:00:16;7.05;;;5.55;;
12869;SDS011;6503;48.572;13.460;2023-05-20T04:02:46;6.82;;;5.97;;
12869;SDS011;6503;48.572;13.460;2023-05-20T04:05:14;6.75;;;5.65;;
12869;SDS011;6503;48.572;13.460;2023-05-20T04:07:42;7.82;;;5.88;;
12869;SDS011;6503;48.572;13.460;2023-05-20T04:10:12;7.25;;;5.82;;
12869;SDS011;6503;48.572;13.460;2023-05-20T04:12:40;7.97;;;5.90;;
12869;SDS011;6503;48.572;13.460;2023-05-20T04:15:08;7.20;;;6.00;;
12869;SDS011;6503;48.572;13.460;2023-05-20T04:17:37;7.53;;;6.05;;
12869;SDS011;6503;48.572;13.460;2023-05-20T04:20:05;8.30;;;5.82;;
12869;SDS011;6503;48.572;13.460;2023-05-20T04:22:34;8.27;;;6.13;;
12869;SDS011;6503;48.572;13.460;2023-05-20T04:25:04;11.80;;;6.18;;
12869;SDS011;6503;48.572;13.460;2023-05-20T04:27:35;7.40;;;6.32;;
12869;SDS011;6503;48.572;13.460;2023-05-20T04:30:04;7.18;;;6.20;;
12869;SDS011;6503;48.572;13.460;2023-05-20T04:32:32;8.13;;;6.10;;
12869;SDS011;6503;48.572;13.460;2023-05-20T04:34:59;8.40;;;6.38;;
12869;SDS011;6503;48.572;13.460;2023-05-20T04:37:27;8.52;;;6.60;;
12869;SDS011;6503;48.572;13.460;2023-05-20T04:39:56;8.45;;;6.70;;
12869;SDS011;6503;48.572;13.460;2023-05-20T04:42:23;7.95;;;6.30;;
12869;SDS011;6503;48.572;13.460;2023-05-20T04:44:53;7.95;;;6.57;;
12869;SDS011;6503;48.572;13.460;2023-05-20T04:47:20;10.30;;;6.50;;
12869;SDS011;6503;48.572;13.460;2023-05-20T04:49:54;8.85;;;6.78;;
12869;SDS011;6503;48.572;13.460;2023-05-20T04:52:24;7.97;;;6.35;;
12869;SDS011;6503;48.572;13.460;2023-05-20T04:57:27;7.38;;;6.03;;
12869;SDS011;6503;48.572;13.460;2023-05-20T04:59:56;7.70;;;6.38;;
12869;SDS011;6503;48.572;13.460;2023-05-20T05:02:25;9.48;;;6.57;;
12869;SDS011;6503;48.572;13.460;2023-05-20T05:05:01;7.60;;;6.68;;
12869;SDS011;6503;48.572;13.460;2023-05-20T05:07:31;8.27;;;6.15;;
12869;SDS011;6503;48.572;13.460;2023-05-20T05:10:15;11.85;;;7.30;;
12869;SDS011;6503;48.572;13.460;2023-05-20T05:13:04;6.82;;;5.95;;
12869;SDS011;6503;48.572;13.460;2023-05-20T05:15:40;7.75;;;6.07;;
12869;SDS011;6503;48.572;13.460;2023-05-20T05:18:09;7.32;;;5.85;;
12869;SDS011;6503;48.572;13.460;2023-05-20T05:20:42;6.35;;;5.72;;
12869;SDS011;6503;48.572;13.460;2023-05-20T05:23:17;10.40;;;6.07;;
12869;SDS011;6503;48.572;13.460;2023-05-20T05:25:53;7.60;;;6.20;;
12869;SDS011;6503;48.572;13.460;2023-05-20T05:28:21;7.57;;;6.07;;
12869;SDS011;6503;48.572;13.460;2023-05-20T05:30:54;7.20;;;6.10;;
12869;SDS011;6503;48.572;13.460;2023-05-20T05:33:21;6.63;;;5.95;;
12869;SDS011;6503;48.572;13.460;2023-05-20T05:35:49;7.00;;;6.28;;
12869;SDS011;6503;48.572;13.460;2023-05-20T05:40:54;7.43;;;6.55;;
12869;SDS011;6503;48.572;13.460;2023-05-20T05:43:23;10.88;;;6.53;;
12869;SDS011;6503;48.572;13.460;2023-05-20T05:51:51;8.48;;;6.20;;
12869;SDS011;6503;48.572;13.460;2023-05-20T05:54:31;7.60;;;5.93;;
12869;SDS011;6503;48.572;13.460;2023-05-20T05:57:21;7.82;;;5.78;;
12869;SDS011;6503;48.572;13.460;2023-05-20T05:59:50;8.35;;;6.03;;
12869;SDS011;6503;48.572;13.460;2023-05-20T06:02:17;6.95;;;5.90;;
12869;SDS011;6503;48.572;13.460;2023-05-20T06:04:44;11.75;;;6.13;;
12869;SDS011;6503;48.572;13.460;2023-05-20T06:07:16;9.50;;;6.80;;
12869;SDS011;6503;48.572;13.460;2023-05-20T06:09:48;6.65;;;5.93;;
12869;SDS011;6503;48.572;13.460;2023-05-20T06:12:16;7.18;;;5.60;;
12869;SDS011;6503;48.572;13.460;2023-05-20T06:14:46;8.40;;;5.68;;
12869;SDS011;6503;48.572;13.460;2023-05-20T06:17:17;7.57;;;6.00;;
12869;SDS011;6503;48.572;13.460;2023-05-20T06:19:48;10.27;;;5.93;;
12869;SDS011;6503;48.572;13.460;2023-05-20T06:22:31;8.20;;;6.22;;
12869;SDS011;6503;48.572;13.460;2023-05-20T06:25:05;6.40;;;5.07;;
12869;SDS011;6503;48.572;13.460;2023-05-20T06:27:40;7.80;;;6.43;;
12869;SDS011;6503;48.572;13.460;2023-05-20T06:30:08;6.32;;;5.68;;
12869;SDS011;6503;48.572;13.460;2023-05-20T06:32:35;9.23;;;6.10;;
12869;SDS011;6503;48.572;13.460;2023-05-20T06:35:04;6.97;;;6.20;;
12869;SDS011;6503;48.572;13.460;2023-05-20T06:37:34;10.73;;;5.80;;
12869;SDS011;6503;48.572;13.460;2023-05-20T06:40:02;6.32;;;5.28;;
12869;SDS011;6503;48.572;13.460;2023-05-20T06:42:30;7.40;;;5.65;;
12869;SDS011;6503;48.572;13.460;2023-05-20T06:44:59;6.65;;;5.20;;
12869;SDS011;6503;48.572;13.460;2023-05-20T06:47:28;9.43;;;6.47;;
12869;SDS011;6503;48.572;13.460;2023-05-20T06:49:57;6.97;;;5.68;;
12869;SDS011;6503;48.572;13.460;2023-05-20T06:52:30;7.63;;;5.97;;
12869;SDS011;6503;48.572;13.460;2023-05-20T06:54:59;7.75;;;5.70;;
12869;SDS011;6503;48.572;13.460;2023-05-20T06:57:26;6.75;;;5.80;;
12869;SDS011;6503;48.572;13.460;2023-05-20T06:59:56;7.65;;;5.70;;
12869;SDS011;6503;48.572;13.460;2023-05-20T07:02:37;8.18;;;5.90;;
12869;SDS011;6503;48.572;13.460;2023-05-20T07:05:05;8.73;;;6.18;;
12869;SDS011;6503;48.572;13.460;2023-05-20T07:07:46;7.90;;;5.85;;
12869;SDS011;6503;48.572;13.460;2023-05-20T07:16:11;7.93;;;6.63;;
12869;SDS011;6503;48.572;13.460;2023-05-20T07:18:38;7.68;;;6.07;;
12869;SDS011;6503;48.572;13.460;2023-05-20T07:21:09;6.70;;;5.80;;
12869;SDS011;6503;48.572;13.460;2023-05-20T07:23:48;10.65;;;6.75;;
12869;SDS011;6503;48.572;13.460;2023-05-20T07:26:18;9.23;;;5.72;;
12869;SDS011;6503;48.572;13.460;2023-05-20T07:28:57;8.33;;;6.00;;
12869;SDS011;6503;48.572;13.460;2023-05-20T07:34:19;9.38;;;6.05;;
12869;SDS011;6503;48.572;13.460;2023-05-20T07:36:47;6.57;;;5.88;;
12869;SDS011;6503;48.572;13.460;2023-05-20T07:39:20;8.95;;;6.10;;
12869;SDS011;6503;48.572;13.460;2023-05-20T07:41:49;8.10;;;5.85;;
12869;SDS011;6503;48.572;13.460;2023-05-20T07:44:17;9.45;;;6.72;;
12869;SDS011;6503;48.572;13.460;2023-05-20T07:46:48;7.72;;;5.50;;
12869;SDS011;6503;48.572;13.460;2023-05-20T07:49:22;7.50;;;5.95;;
12869;SDS011;6503;48.572;13.460;2023-05-20T07:51:50;9.40;;;6.10;;
12869;SDS011;6503;48.572;13.460;2023-05-20T07:54:18;11.02;;;6.50;;
12869;SDS011;6503;48.572;13.460;2023-05-20T07:56:51;7.32;;;5.72;;
12869;SDS011;6503;48.572;13.460;2023-05-20T07:59:25;9.43;;;6.47;;
12869;SDS011;6503;48.572;13.460;2023-05-20T08:02:21;7.53;;;6.60;;
12869;SDS011;6503;48.572;13.460;2023-05-20T08:10:30;8.60;;;6.60;;
12869;SDS011;6503;48.572;13.460;2023-05-20T08:12:58;7.50;;;6.22;;
12869;SDS011;6503;48.572;13.460;2023-05-20T08:15:28;9.93;;;6.00;;
12869;SDS011;6503;48.572;13.460;2023-05-20T08:18:02;6.50;;;5.70;;
12869;SDS011;6503;48.572;13.460;2023-05-20T08:20:42;8.38;;;5.72;;
12869;SDS011;6503;48.572;13.460;2023-05-20T08:23:36;8.73;;;6.18;;
12869;SDS011;6503;48.572;13.460;2023-05-20T08:29:09;6.60;;;5.90;;
12869;SDS011;6503;48.572;13.460;2023-05-20T08:31:36;6.43;;;5.60;;
12869;SDS011;6503;48.572;13.460;2023-05-20T08:36:58;6.07;;;5.47;;
12869;SDS011;6503;48.572;13.460;2023-05-20T08:40:33;9.52;;;6.47;;
12869;SDS011;6503;48.572;13.460;2023-05-20T08:42:48;9.05;;;6.28;;
12869;SDS011;6503;48.572;13.460;2023-05-20T08:48:43;8.95;;;5.97;;
12869;SDS011;6503;48.572;13.460;2023-05-20T08:51:35;8.30;;;6.35;;
12869;SDS011;6503;48.572;13.460;2023-05-20T08:54:47;7.35;;;6.55;;
12869;SDS011;6503;48.572;13.460;2023-05-20T08:57:41;7.70;;;6.18;;
12869;SDS011;6503;48.572;13.460;2023-05-20T09:37:53;9.73;;;6.30;;
12869;SDS011;6503;48.572;13.460;2023-05-20T09:40:47;9.23;;;5.80;;
12869;SDS011;6503;48.572;13.460;2023-05-20T09:43:40;6.82;;;6.00;;
12869;SDS011;6503;48.572;13.460;2023-05-20T09:46:37;6.45;;;5.80;;
12869;SDS011;6503;48.572;13.460;2023-05-20T09:49:38;7.18;;;5.78;;
12869;SDS011;6503;48.572;13.460;2023-05-20T09:52:30;9.65;;;6.03;;
12869;SDS011;6503;48.572;13.460;2023-05-20T10:01:20;7.10;;;5.60;;
12869;SDS011;6503;48.572;13.460;2023-05-20T10:04:08;6.88;;;5.90;;
12869;SDS011;6503;48.572;13.460;2023-05-20T10:10:17;7.97;;;6.18;;
12869;SDS011;6503;48.572;13.460;2023-05-20T10:18:24;7.60;;;5.63;;
12869;SDS011;6503;48.572;13.460;2023-05-20T11:49:00;6.95;;;5.78;;
12869;SDS011;6503;48.572;13.460;2023-05-20T11:52:22;7.13;;;6.43;;
12869;SDS011;6503;48.572;13.460;2023-05-20T11:55:13;7.00;;;6.30;;
12869;SDS011;6503;48.572;13.460;2023-05-20T11:58:02;8.60;;;6.10;;
12869;SDS011;6503;48.572;13.460;2023-05-20T12:00:52;8.88;;;6.60;;
12869;SDS011;6503;48.572;13.460;2023-05-20T12:06:35;8.20;;;6.45;;
12869;SDS011;6503;48.572;13.460;2023-05-20T12:09:30;8.82;;;6.13;;
12869;SDS011;6503;48.572;13.460;2023-05-20T12:12:01;9.30;;;5.93;;
12869;SDS011;6503;48.572;13.460;2023-05-20T12:14:48;9.10;;;5.90;;
12869;SDS011;6503;48.572;13.460;2023-05-20T12:17:16;8.45;;;6.30;;
12869;SDS011;6503;48.572;13.460;2023-05-20T12:19:52;8.80;;;6.97;;
12869;SDS011;6503;48.572;13.460;2023-05-20T12:25:33;6.65;;;6.03;;
12869;SDS011;6503;48.572;13.460;2023-05-20T12:31:06;6.95;;;6.07;;
12869;SDS011;6503;48.572;13.460;2023-05-20T12:33:51;8.45;;;7.20;;
12869;SDS011;6503;48.572;13.460;2023-05-20T12:36:32;8.25;;;6.38;;
12869;SDS011;6503;48.572;13.460;2023-05-20T12:39:23;8.45;;;6.28;;
12869;SDS011;6503;48.572;13.460;2023-05-20T12:42:35;8.68;;;6.60;;
12869;SDS011;6503;48.572;13.460;2023-05-20T12:45:17;10.07;;;7.05;;
12869;SDS011;6503;48.572;13.460;2023-05-20T12:48:22;6.75;;;5.72;;
12869;SDS011;6503;48.572;13.460;2023-05-20T12:51:02;11.13;;;5.95;;
12869;SDS011;6503;48.572;13.460;2023-05-20T12:54:25;7.15;;;5.45;;
12869;SDS011;6503;48.572;13.460;2023-05-20T12:57:01;6.90;;;6.13;;
12869;SDS011;6503;48.572;13.460;2023-05-20T13:05:20;6.75;;;5.82;;
12869;SDS011;6503;48.572;13.460;2023-05-20T13:07:50;6.65;;;5.55;;
12869;SDS011;6503;48.572;13.460;2023-05-20T13:10:31;6.70;;;5.95;;
12869;SDS011;6503;48.572;13.460;2023-05-20T13:13:11;8.10;;;6.20;;
12869;SDS011;6503;48.572;13.460;2023-05-20T13:15:49;8.48;;;6.07;;
12869;SDS011;6503;48.572;13.460;2023-05-20T13:18:45;8.88;;;6.57;;
12869;SDS011;6503;48.572;13.460;2023-05-20T13:21:29;6.43;;;5.80;;
12869;SDS011;6503;48.572;13.460;2023-05-20T13:23:58;7.78;;;6.00;;
12869;SDS011;6503;48.572;13.460;2023-05-20T13:27:06;7.75;;;6.05;;
12869;SDS011;6503;48.572;13.460;2023-05-20T13:33:19;9.23;;;6.97;;
12869;SDS011;6503;48.572;13.460;2023-05-20T14:15:52;7.90;;;5.97;;
12869;SDS011;6503;48.572;13.460;2023-05-20T14:18:31;9.43;;;6.28;;
12869;SDS011;6503;48.572;13.460;2023-05-20T14:24:19;7.15;;;6.28;;
12869;SDS011;6503;48.572;13.460;2023-05-20T14:27:05;7.03;;;6.15;;
12869;SDS011;6503;48.572;13.460;2023-05-20T14:44:52;6.28;;;5.63;;
12869;SDS011;6503;48.572;13.460;2023-05-20T15:16:09;7.68;;;6.05;;
12869;SDS011;6503;48.572;13.460;2023-05-20T15:18:59;11.63;;;6.93;;
12869;SDS011;6503;48.572;13.460;2023-05-20T15:21:52;7.90;;;6.28;;
12869;SDS011;6503;48.572;13.460;2023-05-20T15:24:28;10.25;;;6.57;;
12869;SDS011;6503;48.572;13.460;2023-05-20T15:27:09;8.75;;;6.70;;
12869;SDS011;6503;48.572;13.460;2023-05-20T15:29:53;9.57;;;7.07;;
12869;SDS011;6503;48.572;13.460;2023-05-20T15:50:17;7.87;;;6.60;;
12869;SDS011;6503;48.572;13.460;2023-05-20T15:56:28;7.47;;;6.68;;
12869;SDS011;6503;48.572;13.460;2023-05-20T15:59:12;8.98;;;6.78;;
12869;SDS011;6503;48.572;13.460;2023-05-20T16:01:46;9.32;;;6.75;;
12869;SDS011;6503;48.572;13.460;2023-05-20T16:28:55;9.95;;;7.07;;
12869;SDS011;6503;48.572;13.460;2023-05-20T16:31:28;12.40;;;7.35;;
12869;SDS011;6503;48.572;13.460;2023-05-20T16:34:04;8.43;;;6.57;;
12869;SDS011;6503;48.572;13.460;2023-05-20T16:36:57;8.20;;;6.90;;
12869;SDS011;6503;48.572;13.460;2023-05-20T16:39:47;9.45;;;7.30;;
12869;SDS011;6503;48.572;13.460;2023-05-20T16:42:18;9.77;;;7.50;;
12869;SDS011;6503;48.572;13.460;2023-05-20T16:45:00;11.32;;;7.38;;
12869;SDS011;6503;48.572;13.460;2023-05-20T16:47:43;9.50;;;7.32;;
12869;SDS011;6503;48.572;13.460;2023-05-20T16:50:30;9.02;;;6.90;;
12869;SDS011;6503;48.572;13.460;2023-05-20T16:53:12;10.85;;;7.20;;
12869;SDS011;6503;48.572;13.460;2023-05-20T16:55:40;9.88;;;8.00;;
12869;SDS011;6503;48.572;13.460;2023-05-20T16:58:11;9.38;;;7.28;;
12869;SDS011;6503;48.572;13.460;2023-05-20T17:00:40;9.05;;;7.00;;
12869;SDS011;6503;48.572;13.460;2023-05-20T17:03:25;8.85;;;7.22;;
12869;SDS011;6503;48.572;13.460;2023-05-20T17:06:06;10.48;;;7.72;;
12869;SDS011;6503;48.572;13.460;2023-05-20T17:08:34;9.20;;;7.60;;
12869;SDS011;6503;48.572;13.460;2023-05-20T17:11:10;10.25;;;7.85;;
12869;SDS011;6503;48.572;13.460;2023-05-20T17:13:40;8.15;;;7.25;;
12869;SDS011;6503;48.572;13.460;2023-05-20T17:16:19;16.13;;;10.88;;
12869;SDS011;6503;48.572;13.460;2023-05-20T17:18:49;9.18;;;7.53;;
12869;SDS011;6503;48.572;13.460;2023-05-20T17:21:28;10.57;;;7.10;;
12869;SDS011;6503;48.572;13.460;2023-05-20T17:24:56;11.18;;;8.80;;
12869;SDS011;6503;48.572;13.460;2023-05-20T17:27:11;12.15;;;7.35;;
12869;SDS011;6503;48.572;13.460;2023-05-20T17:30:03;8.73;;;7.13;;
12869;SDS011;6503;48.572;13.460;2023-05-20T17:35:56;8.68;;;7.40;;
12869;SDS011;6503;48.572;13.460;2023-05-20T17:41:06;8.10;;;7.30;;
12869;SDS011;6503;48.572;13.460;2023-05-20T17:57:28;8.85;;;7.95;;
12869;SDS011;6503;48.572;13.460;2023-05-20T18:02:50;10.18;;;8.38;;
12869;SDS011;6503;48.572;13.460;2023-05-20T18:05:33;9.60;;;7.57;;
12869;SDS011;6503;48.572;13.460;2023-05-20T18:08:43;9.00;;;7.68;;
12869;SDS011;6503;48.572;13.460;2023-05-20T18:11:11;9.68;;;7.88;;
12869;SDS011;6503;48.572;13.460;2023-05-20T18:18:54;9.73;;;8.10;;
12869;SDS011;6503;48.572;13.460;2023-05-20T18:21:43;9.23;;;7.53;;
12869;SDS011;6503;48.572;13.460;2023-05-20T18:27:07;9.40;;;7.85;;
12869;SDS011;6503;48.572;13.460;2023-05-20T18:29:51;10.80;;;8.20;;
12869;SDS011;6503;48.572;13.460;2023-05-20T18:40:47;10.70;;;7.95;;
12869;SDS011;6503;48.572;13.460;2023-05-20T18:43:34;10.50;;;7.95;;
12869;SDS011;6503;48.572;13.460;2023-05-20T18:46:29;11.82;;;8.23;;
12869;SDS011;6503;48.572;13.460;2023-05-20T18:49:19;12.52;;;8.68;;
12869;SDS011;6503;48.572;13.460;2023-05-20T19:07:20;10.07;;;8.15;;
12869;SDS011;6503;48.572;13.460;2023-05-20T19:12:35;10.68;;;8.40;;
12869;SDS011;6503;48.572;13.460;2023-05-20T19:15:07;11.25;;;8.30;;
12869;SDS011;6503;48.572;13.460;2023-05-20T19:17:36;10.52;;;8.30;;
12869;SDS011;6503;48.572;13.460;2023-05-20T19:20:17;11.23;;;8.25;;
12869;SDS011;6503;48.572;13.460;2023-05-20T19:23:00;11.52;;;8.68;;
12869;SDS011;6503;48.572;13.460;2023-05-20T19:25:29;11.30;;;8.50;;
12869;SDS011;6503;48.572;13.460;2023-05-20T19:27:59;10.00;;;8.30;;
12869;SDS011;6503;48.572;13.460;2023-05-20T19:30:32;10.77;;;7.78;;
12869;SDS011;6503;48.572;13.460;2023-05-20T19:33:00;9.80;;;8.05;;
12869;SDS011;6503;48.572;13.460;2023-05-20T19:35:28;10.77;;;7.97;;
12869;SDS011;6503;48.572;13.460;2023-05-20T19:38:03;10.73;;;8.13;;
12869;SDS011;6503;48.572;13.460;2023-05-20T19:40:38;11.77;;;8.32;;
12869;SDS011;6503;48.572;13.460;2023-05-20T19:43:07;10.23;;;8.60;;
12869;SDS011;6503;48.572;13.460;2023-05-20T19:48:22;9.60;;;8.10;;
12869;SDS011;6503;48.572;13.460;2023-05-20T19:56:59;11.57;;;8.35;;
12869;SDS011;6503;48.572;13.460;2023-05-20T19:59:43;10.32;;;8.95;;
12869;SDS011;6503;48.572;13.460;2023-05-20T20:02:10;10.30;;;8.40;;
12869;SDS011;6503;48.572;13.460;2023-05-20T20:04:54;11.23;;;8.52;;
12869;SDS011;6503;48.572;13.460;2023-05-20T20:07:28;9.75;;;8.55;;
12869;SDS011;6503;48.572;13.460;2023-05-20T20:09:56;12.25;;;8.73;;
12869;SDS011;6503;48.572;13.460;2023-05-20T20:12:42;10.82;;;7.88;;
12869;SDS011;6503;48.572;13.460;2023-05-20T20:15:10;10.77;;;8.10;;
12869;SDS011;6503;48.572;13.460;2023-05-20T20:17:41;12.70;;;7.93;;
12869;SDS011;6503;48.572;13.460;2023-05-20T20:20:14;11.75;;;8.48;;
12869;SDS011;6503;48.572;13.460;2023-05-20T20:22:47;11.77;;;8.50;;
12869;SDS011;6503;48.572;13.460;2023-05-20T20:25:18;9.70;;;7.85;;
12869;SDS011;6503;48.572;13.460;2023-05-20T20:27:56;8.88;;;7.40;;
12869;SDS011;6503;48.572;13.460;2023-05-20T20:30:24;10.50;;;7.75;;
12869;SDS011;6503;48.572;13.460;2023-05-20T20:32:52;10.70;;;8.23;;
12869;SDS011;6503;48.572;13.460;2023-05-20T20:35:20;9.07;;;7.70;;
12869;SDS011;6503;48.572;13.460;2023-05-20T20:37:51;8.75;;;7.85;;
12869;SDS011;6503;48.572;13.460;2023-05-20T20:40:46;12.85;;;8.30;;
12869;SDS011;6503;48.572;13.460;2023-05-20T20:43:35;10.13;;;7.97;;
12869;SDS011;6503;48.572;13.460;2023-05-20T20:46:13;10.63;;;8.25;;
12869;SDS011;6503;48.572;13.460;2023-05-20T20:48:40;11.43;;;8.00;;
12869;SDS011;6503;48.572;13.460;2023-05-20T20:51:16;9.35;;;7.82;;
12869;SDS011;6503;48.572;13.460;2023-05-20T20:53:49;9.60;;;8.27;;
12869;SDS011;6503;48.572;13.460;2023-05-20T20:56:17;10.68;;;8.02;;
12869;SDS011;6503;48.572;13.460;2023-05-20T20:58:54;11.65;;;8.38;;
12869;SDS011;6503;48.572;13.460;2023-05-20T21:01:42;10.57;;;8.35;;
12869;SDS011;6503;48.572;13.460;2023-05-20T21:04:26;10.75;;;8.07;;
12869;SDS011;6503;48.572;13.460;2023-05-20T21:06:57;11.75;;;7.85;;
12869;SDS011;6503;48.572;13.460;2023-05-20T21:09:29;11.38;;;7.57;;
12869;SDS011;6503;48.572;13.460;2023-05-20T21:12:11;12.10;;;8.23;;
12869;SDS011;6503;48.572;13.460;2023-05-20T21:17:50;10.32;;;7.80;;
12869;SDS011;6503;48.572;13.460;2023-05-20T21:20:24;10.50;;;8.27;;
12869;SDS011;6503;48.572;13.460;2023-05-20T21:25:51;10.45;;;8.50;;
12869;SDS011;6503;48.572;13.460;2023-05-20T21:28:20;9.55;;;7.97;;
12869;SDS011;6503;48.572;13.460;2023-05-20T21:30:48;10.75;;;7.80;;
12869;SDS011;6503;48.572;13.460;2023-05-20T21:38:35;8.95;;;7.68;;
12869;SDS011;6503;48.572;13.460;2023-05-20T21:41:03;11.48;;;8.45;;
12869;SDS011;6503;48.572;13.460;2023-05-20T21:43:30;11.73;;;8.52;;
12869;SDS011;6503;48.572;13.460;2023-05-20T21:46:05;10.13;;;8.32;;
12869;SDS011;6503;48.572;13.460;2023-05-20T21:48:48;10.25;;;8.27;;
12869;SDS011;6503;48.572;13.460;2023-05-20T21:51:20;8.77;;;7.82;;
12869;SDS011;6503;48.572;13.460;2023-05-20T21:53:49;11.52;;;8.05;;
12869;SDS011;6503;48.572;13.460;2023-05-20T21:56:16;10.55;;;8.70;;
12869;SDS011;6503;48.572;13.460;2023-05-20T21:59:04;14.68;;;8.75;;
12869;SDS011;6503;48.572;13.460;2023-05-20T22:01:42;14.02;;;7.93;;
12869;SDS011;6503;48.572;13.460;2023-05-20T22:04:12;9.40;;;7.90;;
12869;SDS011;6503;48.572;13.460;2023-05-20T22:06:41;8.88;;;7.97;;
12869;SDS011;6503;48.572;13.460;2023-05-20T22:12:06;11.77;;;9.02;;
12869;SDS011;6503;48.572;13.460;2023-05-20T22:14:43;10.88;;;8.35;;
12869;SDS011;6503;48.572;13.460;2023-05-20T22:17:10;9.98;;;7.82;;
12869;SDS011;6503;48.572;13.460;2023-05-20T22:19:52;9.93;;;8.27;;
12869;SDS011;6503;48.572;13.460;2023-05-20T22:22:33;11.00;;;8.13;;
12869;SDS011;6503;48.572;13.460;2023-05-20T22:25:04;12.48;;;8.10;;
12869;SDS011;6503;48.572;13.460;2023-05-20T22:27:42;11.85;;;8.35;;
12869;SDS011;6503;48.572;13.460;2023-05-20T22:30:17;10.55;;;8.38;;
12869;SDS011;6503;48.572;13.460;2023-05-20T22:32:45;10.27;;;8.25;;
12869;SDS011;6503;48.572;13.460;2023-05-20T22:35:28;11.80;;;8.95;;
12869;SDS011;6503;48.572;13.460;2023-05-20T22:38:01;11.35;;;9.38;;